Time;durP1;ratioP1;P1;durP2;ratioP2;P2;SDS_P1;SDS_P2;PMS_P1;PMS_P2;Temp;Humidity;BMP_temperature;BMP_pressure;BME280_temperature;BME280_humidity;BME280_pressure;Samples;Min_cycle;Max_cycle;Signal;HPM_P1;HPM_P2
2023/04/19 00:01:15;;;;;;;2.15;1.38;;;;;;;;;;4894785;29;20080;-81
2023/04/19 00:03:41;;;;;;;1.52;1.42;;;;;;;;;;4881290;29;20013;-80
2023/04/19 00:06:07;;;;;;;1.60;1.50;;;;;;;;;;4893450;29;20039;-80
2023/04/19 00:08:32;;;;;;;1.98;1.45;;;;;;;;;;4892186;29;20028;-80
2023/04/19 00:10:58;;;;;;;1.85;1.65;;;;;;;;;;4905797;29;20063;-79
2023/04/19 00:13:24;;;;;;;3.35;2.10;;;;;;;;;;4894230;29;20053;-81
2023/04/19 00:15:50;;;;;;;1.80;1.70;;;;;;;;;;4880161;29;20202;-80
2023/04/19 00:18:15;;;;;;;2.08;1.98;;;;;;;;;;4901956;29;20487;-80
2023/04/19 00:20:40;;;;;;;1.80;1.70;;;;;;;;;;4900290;29;20020;-80
2023/04/19 00:23:05;;;;;;;1.75;1.65;;;;;;;;;;4900524;29;20013;-80
2023/04/19 00:25:33;;;;;;;2.42;2.22;;;;;;;;;;4894900;29;20016;-79
2023/04/19 00:27:58;;;;;;;2.00;1.80;;;;;;;;;;4856563;29;20044;-78
2023/04/19 00:30:24;;;;;;;2.20;2.00;;;;;;;;;;4892283;29;20021;-79
2023/04/19 00:32:49;;;;;;;2.92;2.30;;;;;;;;;;4891869;29;20020;-79
2023/04/19 00:35:14;;;;;;;2.00;1.88;;;;;;;;;;4890807;29;20033;-78
2023/04/19 00:37:39;;;;;;;2.40;2.20;;;;;;;;;;4881712;29;20020;-79
2023/04/19 00:40:05;;;;;;;2.40;2.20;;;;;;;;;;4892488;29;20028;-78
2023/04/19 00:42:30;;;;;;;2.38;2.17;;;;;;;;;;4890804;29;20514;-78
2023/04/19 00:44:56;;;;;;;2.17;2.00;;;;;;;;;;4886349;29;20052;-79
2023/04/19 00:47:21;;;;;;;2.70;2.50;;;;;;;;;;4891778;29;20028;-79
2023/04/19 00:49:46;;;;;;;2.95;2.63;;;;;;;;;;4865425;29;20084;-79
2023/04/19 00:52:12;;;;;;;2.65;2.45;;;;;;;;;;4887525;29;20361;-79
2023/04/19 00:54:39;;;;;;;2.60;2.40;;;;;;;;;;4874105;29;20024;-79
2023/04/19 00:57:05;;;;;;;2.88;2.67;;;;;;;;;;4889194;29;20036;-78
2023/04/19 00:59:31;;;;;;;3.92;3.10;;;;;;;;;;4891221;29;20163;-79
2023/04/19 01:01:57;;;;;;;3.38;3.10;;;;;;;;;;4882580;29;20053;-81
2023/04/19 01:04:22;;;;;;;3.00;2.80;;;;;;;;;;4896423;29;20506;-81
2023/04/19 01:06:47;;;;;;;3.50;2.78;;;;;;;;;;4903212;29;20036;-80
2023/04/19 01:09:13;;;;;;;3.25;2.95;;;;;;;;;;4895241;29;20031;-79
2023/04/19 01:11:38;;;;;;;3.85;3.40;;;;;;;;;;4881841;29;20033;-79
2023/04/19 01:14:03;;;;;;;3.70;3.40;;;;;;;;;;4888722;29;20035;-79
2023/04/19 01:16:29;;;;;;;3.88;3.58;;;;;;;;;;4895094;29;20388;-80
2023/04/19 01:18:55;;;;;;;3.80;3.45;;;;;;;;;;4894690;29;20031;-79
2023/04/19 01:21:21;;;;;;;3.40;3.10;;;;;;;;;;4874516;29;20043;-80
2023/04/19 01:23:46;;;;;;;4.03;3.47;;;;;;;;;;4894136;29;20025;-80
2023/04/19 01:26:12;;;;;;;5.53;3.20;;;;;;;;;;4887673;29;20050;-79
2023/04/19 01:28:37;;;;;;;3.67;3.35;;;;;;;;;;4883044;29;20017;-81
2023/04/19 01:31:02;;;;;;;5.63;3.10;;;;;;;;;;4896970;29;20057;-79
2023/04/19 01:33:27;;;;;;;3.75;3.45;;;;;;;;;;4886530;29;20040;-79
2023/04/19 01:35:53;;;;;;;5.22;3.35;;;;;;;;;;4880675;29;20052;-80
2023/04/19 01:38:18;;;;;;;3.33;3.03;;;;;;;;;;4886510;29;20028;-78
2023/04/19 01:40:44;;;;;;;4.13;3.80;;;;;;;;;;4879771;29;20021;-80
2023/04/19 01:43:11;;;;;;;4.53;4.13;;;;;;;;;;4899055;29;20035;-80
2023/04/19 01:45:36;;;;;;;3.55;3.25;;;;;;;;;;4886811;29;20502;-79
2023/04/19 01:48:03;;;;;;;4.07;3.70;;;;;;;;;;4882641;29;20029;-79
2023/04/19 01:50:29;;;;;;;4.07;3.67;;;;;;;;;;4882079;29;20554;-78
2023/04/19 01:52:54;;;;;;;3.70;3.30;;;;;;;;;;4872427;29;20037;-79
2023/04/19 01:55:19;;;;;;;4.05;3.67;;;;;;;;;;4882291;29;20071;-78
2023/04/19 01:57:45;;;;;;;4.90;3.72;;;;;;;;;;4887322;29;20492;-76
2023/04/19 02:00:10;;;;;;;9.48;3.60;;;;;;;;;;4879992;29;20486;-78
2023/04/19 02:02:39;;;;;;;5.00;3.58;;;;;;;;;;4875641;29;20052;-77
2023/04/19 02:05:05;;;;;;;7.22;4.57;;;;;;;;;;4881546;29;20020;-77
2023/04/19 02:07:30;;;;;;;6.43;5.18;;;;;;;;;;4880451;29;20470;-78
2023/04/19 02:09:58;;;;;;;9.15;5.57;;;;;;;;;;4881992;29;20056;-78
2023/04/19 02:12:24;;;;;;;9.45;5.70;;;;;;;;;;4876636;29;20414;-76
2023/04/19 02:14:49;;;;;;;7.05;5.65;;;;;;;;;;4886486;29;20021;-79
2023/04/19 02:17:14;;;;;;;6.25;5.55;;;;;;;;;;4882152;29;20035;-77
2023/04/19 02:19:40;;;;;;;7.43;5.65;;;;;;;;;;4884805;29;20395;-77
2023/04/19 02:22:05;;;;;;;5.95;5.07;;;;;;;;;;4881016;29;20033;-78
2023/04/19 02:24:30;;;;;;;4.82;4.20;;;;;;;;;;4888287;29;20491;-77
2023/04/19 02:26:56;;;;;;;5.13;4.18;;;;;;;;;;4874638;29;20025;-77
2023/04/19 02:29:21;;;;;;;5.43;4.93;;;;;;;;;;4863624;29;20040;-78
2023/04/19 02:31:46;;;;;;;7.85;7.05;;;;;;;;;;4879908;29;20052;-77
2023/04/19 02:34:12;;;;;;;6.95;5.65;;;;;;;;;;4872135;29;20052;-77
2023/04/19 02:36:37;;;;;;;4.40;4.00;;;;;;;;;;4878661;29;20036;-77
2023/04/19 02:39:04;;;;;;;3.00;2.80;;;;;;;;;;4889071;29;20128;-78
2023/04/19 02:41:29;;;;;;;2.60;2.40;;;;;;;;;;4858244;29;20111;-78
2023/04/19 02:43:55;;;;;;;3.33;2.80;;;;;;;;;;4875310;29;20475;-77
2023/04/19 02:46:20;;;;;;;3.42;2.70;;;;;;;;;;4887836;29;20037;-77
2023/04/19 02:48:45;;;;;;;3.47;3.20;;;;;;;;;;4888784;29;20032;-76
2023/04/19 02:51:15;;;;;;;3.28;3.08;;;;;;;;;;4887746;29;20020;-77
2023/04/19 02:53:40;;;;;;;3.60;3.20;;;;;;;;;;4888152;29;20122;-80
2023/04/19 02:56:06;;;;;;;3.97;3.45;;;;;;;;;;4882596;29;20029;-79
2023/04/19 02:58:31;;;;;;;3.25;2.95;;;;;;;;;;4878151;29;20411;-76
2023/04/19 03:00:56;;;;;;;3.88;2.97;;;;;;;;;;4872678;29;20085;-77
2023/04/19 03:03:22;;;;;;;2.90;2.70;;;;;;;;;;4878672;29;20035;-76
2023/04/19 03:05:47;;;;;;;2.90;2.70;;;;;;;;;;4891887;29;20039;-76
2023/04/19 03:08:12;;;;;;;3.38;2.88;;;;;;;;;;4892338;29;20081;-76
2023/04/19 03:10:37;;;;;;;2.75;2.55;;;;;;;;;;4892943;29;20029;-77
2023/04/19 03:13:03;;;;;;;3.75;2.95;;;;;;;;;;4889739;29;20043;-76
2023/04/19 03:15:28;;;;;;;2.75;2.55;;;;;;;;;;4891988;29;20032;-79
2023/04/19 03:17:53;;;;;;;3.05;2.70;;;;;;;;;;4890499;29;20056;-79
2023/04/19 03:20:19;;;;;;;3.35;3.05;;;;;;;;;;4887747;29;20029;-79
2023/04/19 03:22:45;;;;;;;4.07;3.55;;;;;;;;;;4890577;29;20036;-80
2023/04/19 03:25:13;;;;;;;3.40;3.20;;;;;;;;;;4893480;29;20081;-80
2023/04/19 03:27:38;;;;;;;4.95;2.95;;;;;;;;;;4885582;29;20048;-80
2023/04/19 03:30:04;;;;;;;4.10;3.75;;;;;;;;;;4892617;29;20031;-78
2023/04/19 03:32:30;;;;;;;3.97;3.55;;;;;;;;;;4875876;29;20505;-77
2023/04/19 03:34:55;;;;;;;4.30;3.90;;;;;;;;;;4882179;29;20052;-80
2023/04/19 03:37:20;;;;;;;5.53;3.88;;;;;;;;;;4900611;29;20507;-80
2023/04/19 03:39:46;;;;;;;4.32;3.95;;;;;;;;;;4901887;29;20025;-81
2023/04/19 03:42:11;;;;;;;4.80;4.32;;;;;;;;;;4900780;29;20032;-80
2023/04/19 03:44:36;;;;;;;6.90;4.47;;;;;;;;;;4899486;29;20023;-80
2023/04/19 03:47:02;;;;;;;4.20;3.72;;;;;;;;;;4882307;29;20384;-80
2023/04/19 03:49:27;;;;;;;5.35;4.43;;;;;;;;;;4878197;29;20584;-80
2023/04/19 03:51:52;;;;;;;4.68;4.28;;;;;;;;;;4887317;29;20089;-80
2023/04/19 03:54:18;;;;;;;8.00;4.80;;;;;;;;;;4897025;29;20491;-80
2023/04/19 03:56:43;;;;;;;5.70;5.25;;;;;;;;;;4891479;29;20092;-80
2023/04/19 03:59:08;;;;;;;7.30;5.65;;;;;;;;;;4882602;29;20025;-80
2023/04/19 04:01:34;;;;;;;9.48;5.72;;;;;;;;;;4875903;29;20051;-79
2023/04/19 04:03:59;;;;;;;7.75;4.97;;;;;;;;;;4894954;29;20024;-79
2023/04/19 04:06:25;;;;;;;5.40;5.00;;;;;;;;;;4886624;29;20028;-79
2023/04/19 04:08:51;;;;;;;5.50;5.00;;;;;;;;;;4888270;29;20913;-78
2023/04/19 04:11:16;;;;;;;6.57;5.78;;;;;;;;;;4869248;29;20029;-78
2023/04/19 04:13:42;;;;;;;5.47;4.88;;;;;;;;;;4893477;29;20120;-78
2023/04/19 04:16:07;;;;;;;5.55;5.10;;;;;;;;;;4879092;29;20035;-78
2023/04/19 04:18:32;;;;;;;6.10;5.50;;;;;;;;;;4893403;29;20034;-78
2023/04/19 04:20:58;;;;;;;5.95;5.32;;;;;;;;;;4892023;29;20028;-78
2023/04/19 04:23:24;;;;;;;6.45;5.75;;;;;;;;;;4893475;29;20056;-79
2023/04/19 04:25:58;;;;;;;5.53;4.78;;;;;;;;;;4890903;29;20160;-78
2023/04/19 04:28:23;;;;;;;6.45;5.25;;;;;;;;;;4892918;29;20503;-78
2023/04/19 04:30:50;;;;;;;6.55;6.03;;;;;;;;;;4893198;29;20063;-79
2023/04/19 04:33:16;;;;;;;8.05;5.60;;;;;;;;;;4892039;29;20024;-79
2023/04/19 04:35:42;;;;;;;7.00;6.30;;;;;;;;;;4893809;29;20092;-79
2023/04/19 04:38:08;;;;;;;7.05;6.38;;;;;;;;;;4875822;29;20036;-79
2023/04/19 04:40:34;;;;;;;6.82;6.22;;;;;;;;;;4879727;29;20020;-79
2023/04/19 04:42:59;;;;;;;7.93;7.15;;;;;;;;;;4891643;29;20423;-78
2023/04/19 04:45:25;;;;;;;6.90;6.20;;;;;;;;;;4892445;29;20028;-79
2023/04/19 04:47:50;;;;;;;8.98;7.93;;;;;;;;;;4892260;29;20035;-79
2023/04/19 04:50:16;;;;;;;6.88;6.25;;;;;;;;;;4882001;29;20047;-79
2023/04/19 04:52:41;;;;;;;7.03;6.43;;;;;;;;;;4889805;29;20127;-79
2023/04/19 04:55:07;;;;;;;7.22;6.63;;;;;;;;;;4882811;29;20025;-79
2023/04/19 04:57:32;;;;;;;7.10;6.50;;;;;;;;;;4888944;29;20025;-79
2023/04/19 04:59:57;;;;;;;6.93;6.30;;;;;;;;;;4890491;29;20024;-79
2023/04/19 05:02:24;;;;;;;6.78;6.28;;;;;;;;;;4890238;29;20044;-79
2023/04/19 05:04:49;;;;;;;7.55;6.82;;;;;;;;;;4870279;29;20025;-79
2023/04/19 05:07:15;;;;;;;7.35;6.75;;;;;;;;;;4881129;29;20021;-77
2023/04/19 05:09:40;;;;;;;7.68;6.97;;;;;;;;;;4886525;29;20061;-78
2023/04/19 05:12:05;;;;;;;7.60;6.85;;;;;;;;;;4888918;29;20044;-78
2023/04/19 05:14:31;;;;;;;8.27;7.50;;;;;;;;;;4890492;29;20039;-77
2023/04/19 05:16:56;;;;;;;8.43;7.75;;;;;;;;;;4889873;29;20034;-79
2023/04/19 05:19:21;;;;;;;7.07;6.57;;;;;;;;;;4890118;29;20032;-78
2023/04/19 05:21:47;;;;;;;7.20;6.60;;;;;;;;;;4890578;29;20080;-78
2023/04/19 05:24:12;;;;;;;8.55;6.00;;;;;;;;;;4890071;29;20035;-79
2023/04/19 05:26:37;;;;;;;7.15;6.65;;;;;;;;;;4887260;29;20036;-78
2023/04/19 05:29:03;;;;;;;7.43;6.82;;;;;;;;;;4889490;29;20028;-78
2023/04/19 05:31:28;;;;;;;7.13;6.50;;;;;;;;;;4889241;29;20032;-78
2023/04/19 05:33:53;;;;;;;8.05;7.35;;;;;;;;;;4887114;29;20029;-78
2023/04/19 05:36:19;;;;;;;7.25;6.65;;;;;;;;;;4873506;29;20033;-77
2023/04/19 05:38:44;;;;;;;8.25;7.15;;;;;;;;;;4890245;29;20537;-78
2023/04/19 05:41:10;;;;;;;7.85;7.25;;;;;;;;;;4884931;29;20032;-78
2023/04/19 05:43:35;;;;;;;7.72;7.07;;;;;;;;;;4882359;29;20025;-77
2023/04/19 05:46:01;;;;;;;7.63;7.03;;;;;;;;;;4867639;29;20032;-77
2023/04/19 05:48:26;;;;;;;7.93;7.32;;;;;;;;;;4880068;29;20411;-78
2023/04/19 05:50:53;;;;;;;7.78;7.07;;;;;;;;;;4892589;29;20131;-77
2023/04/19 05:53:19;;;;;;;8.43;7.72;;;;;;;;;;4888623;29;20921;-78
2023/04/19 05:55:46;;;;;;;7.57;7.03;;;;;;;;;;4888645;29;20135;-77
2023/04/19 06:00:48;;;;;;;11.93;8.13;;;;;;;;;;4936572;23;20128;-79
2023/04/19 06:03:14;;;;;;;7.88;7.28;;;;;;;;;;4880672;29;20051;-80
2023/04/19 06:05:40;;;;;;;10.23;9.32;;;;;;;;;;4880970;29;20107;-80
2023/04/19 06:08:06;;;;;;;9.30;8.50;;;;;;;;;;4882585;29;20079;-79
2023/04/19 06:10:31;;;;;;;8.63;7.93;;;;;;;;;;4883083;29;20025;-80
2023/04/19 06:12:56;;;;;;;10.73;7.05;;;;;;;;;;4867843;29;20088;-78
2023/04/19 06:15:22;;;;;;;8.15;7.45;;;;;;;;;;4872295;29;20466;-79
2023/04/19 06:17:47;;;;;;;7.68;7.10;;;;;;;;;;4891909;29;20068;-80
2023/04/19 06:20:13;;;;;;;8.15;7.45;;;;;;;;;;4874980;29;20055;-80
2023/04/19 06:22:44;;;;;;;7.68;6.95;;;;;;;;;;4894284;29;20033;-80
2023/04/19 06:25:09;;;;;;;7.43;6.80;;;;;;;;;;4897417;29;20024;-78
2023/04/19 06:27:35;;;;;;;6.82;6.30;;;;;;;;;;4880530;29;20084;-78
2023/04/19 06:30:00;;;;;;;7.78;7.00;;;;;;;;;;4880591;29;20036;-81
2023/04/19 06:32:28;;;;;;;11.20;7.22;;;;;;;;;;4897870;29;20031;-80
2023/04/19 06:34:54;;;;;;;7.47;6.78;;;;;;;;;;4903819;29;20039;-80
2023/04/19 06:37:19;;;;;;;11.57;6.95;;;;;;;;;;4902844;29;20021;-80
2023/04/19 06:39:44;;;;;;;7.60;6.82;;;;;;;;;;4893695;29;20036;-79
2023/04/19 06:42:11;;;;;;;7.28;6.68;;;;;;;;;;4874038;29;20040;-80
2023/04/19 06:44:36;;;;;;;7.93;7.22;;;;;;;;;;4892659;29;20096;-80
2023/04/19 06:47:02;;;;;;;6.70;6.05;;;;;;;;;;4899889;29;20495;-80
2023/04/19 06:49:27;;;;;;;6.40;5.90;;;;;;;;;;4885953;29;20036;-81
2023/04/19 06:51:53;;;;;;;6.13;5.72;;;;;;;;;;4890595;29;20028;-78
2023/04/19 06:54:18;;;;;;;5.57;5.18;;;;;;;;;;4873457;29;20021;-80
2023/04/19 06:56:47;;;;;;;6.50;5.43;;;;;;;;;;4897294;29;20641;-81
2023/04/19 06:59:19;;;;;;;7.07;6.47;;;;;;;;;;4872050;29;20120;-81
2023/04/19 07:01:47;;;;;;;7.57;6.97;;;;;;;;;;4883326;29;20056;-80
2023/04/19 07:04:13;;;;;;;6.45;5.90;;;;;;;;;;4881205;29;20032;-80
2023/04/19 07:06:38;;;;;;;7.13;6.53;;;;;;;;;;4883385;29;20130;-80
2023/04/19 07:09:04;;;;;;;6.93;5.70;;;;;;;;;;4883397;29;20025;-80
2023/04/19 07:11:30;;;;;;;6.63;5.50;;;;;;;;;;4904683;29;20016;-80
2023/04/19 07:13:55;;;;;;;5.82;5.43;;;;;;;;;;4907227;29;20028;-80
2023/04/19 07:16:21;;;;;;;6.10;5.60;;;;;;;;;;4882402;29;20021;-80
2023/04/19 07:18:48;;;;;;;6.35;5.20;;;;;;;;;;4887234;29;20081;-81
2023/04/19 07:21:13;;;;;;;7.57;5.55;;;;;;;;;;4882115;29;20040;-80
2023/04/19 07:23:39;;;;;;;8.93;5.85;;;;;;;;;;4891472;29;20095;-81
2023/04/19 07:26:04;;;;;;;6.15;5.65;;;;;;;;;;4890619;29;20040;-80
2023/04/19 07:28:29;;;;;;;8.55;5.07;;;;;;;;;;4906222;29;20056;-79
2023/04/19 07:30:55;;;;;;;6.15;5.55;;;;;;;;;;4895358;29;20036;-80
2023/04/19 07:33:21;;;;;;;5.40;4.90;;;;;;;;;;4908212;29;20052;-81
2023/04/19 07:35:54;;;;;;;6.68;5.70;;;;;;;;;;4897722;29;20013;-81
2023/04/19 07:38:23;;;;;;;6.65;5.20;;;;;;;;;;5132951;23;20068;-81
2023/04/19 07:48:37;;;;;;;5.40;4.95;;;;;;;;;;5412790;23;20037;-81
2023/04/19 07:56:26;;;;;;;5.50;5.00;;;;;;;;;;5194694;23;20112;-81
2023/04/19 07:58:52;;;;;;;5.82;5.32;;;;;;;;;;4901346;29;20021;-81
2023/04/19 08:01:17;;;;;;;4.72;4.28;;;;;;;;;;5444473;23;20013;-81
2023/04/19 08:03:43;;;;;;;4.68;4.38;;;;;;;;;;5059833;23;20075;-82
2023/04/19 08:06:09;;;;;;;4.38;4.05;;;;;;;;;;4942383;29;20016;-83
2023/04/19 08:08:37;;;;;;;4.00;3.70;;;;;;;;;;4941933;29;20084;-84
2023/04/19 08:11:03;;;;;;;4.70;4.30;;;;;;;;;;4922426;29;20012;-83
2023/04/19 08:13:29;;;;;;;4.75;3.47;;;;;;;;;;4926717;29;20029;-81
2023/04/19 08:23:39;;;;;;;4.28;3.97;;;;;;;;;;5645634;23;20060;-81
2023/04/19 08:34:10;;;;;;;5.07;4.15;;;;;;;;;;5248322;23;20028;-79
2023/04/19 08:36:37;;;;;;;5.00;4.65;;;;;;;;;;4921577;29;20008;-81
2023/04/19 08:41:38;;;;;;;5.13;4.70;;;;;;;;;;4557690;23;19935;-80
2023/04/19 08:52:25;;;;;;;5.55;5.05;;;;;;;;;;516281;27;20349;-83
2023/04/19 08:57:36;;;;;;;4.40;3.97;;;;;;;;;;4574284;27;20041;-84
2023/04/19 10:13:22;;;;;;;4.72;3.13;;;;;;;;;;1286241;23;20349;-81
2023/04/19 10:15:47;;;;;;;3.63;3.00;;;;;;;;;;4925168;29;20075;-84
2023/04/19 10:20:48;;;;;;;5.05;3.10;;;;;;;;;;5330783;23;20506;-86
2023/04/19 10:23:14;;;;;;;3.17;2.55;;;;;;;;;;4884505;29;20099;-88
2023/04/19 10:25:39;;;;;;;4.78;2.47;;;;;;;;;;4898035;29;20020;-88
2023/04/19 10:28:05;;;;;;;3.05;2.78;;;;;;;;;;4896927;29;20028;-85
2023/04/19 10:30:30;;;;;;;4.43;2.90;;;;;;;;;;4887154;29;20111;-85
2023/04/19 10:32:57;;;;;;;3.20;2.75;;;;;;;;;;4882675;29;20024;-88
2023/04/19 10:35:24;;;;;;;3.10;2.90;;;;;;;;;;4879183;29;20055;-89
2023/04/19 10:43:34;;;;;;;3.22;3.03;;;;;;;;;;5015913;23;20056;-91
2023/04/19 10:46:01;;;;;;;3.42;3.20;;;;;;;;;;4883302;29;20517;-89
2023/04/19 10:48:29;;;;;;;3.05;2.85;;;;;;;;;;4886932;29;20217;-90
2023/04/19 10:50:58;;;;;;;3.88;2.90;;;;;;;;;;4882363;29;20522;-89
2023/04/19 10:53:42;;;;;;;3.15;2.85;;;;;;;;;;4899179;29;20120;-88
2023/04/19 10:56:07;;;;;;;7.63;2.88;;;;;;;;;;4871502;29;20705;-90
2023/04/19 10:58:53;;;;;;;2.85;2.65;;;;;;;;;;4866949;29;20028;-88
2023/04/19 11:01:38;;;;;;;2.75;2.55;;;;;;;;;;4869177;29;20021;-88
2023/04/19 11:04:07;;;;;;;3.33;3.03;;;;;;;;;;4884537;29;20032;-90
2023/04/19 11:06:33;;;;;;;3.60;3.30;;;;;;;;;;4877348;29;20043;-88
2023/04/19 11:22:03;;;;;;;4.40;2.63;;;;;;;;;;5875401;23;19970;-82
2023/04/19 11:33:02;;;;;;;2.20;2.10;;;;;;;;;;4920544;29;20068;-84
2023/04/19 11:35:29;;;;;;;1.38;1.27;;;;;;;;;;4926544;29;20021;-83
2023/04/19 11:37:55;;;;;;;1.00;0.90;;;;;;;;;;4937345;29;20024;-85
2023/04/19 11:45:32;;;;;;;0.68;0.68;;;;;;;;;;4786850;23;20246;-83
2023/04/19 11:55:43;;;;;;;0.60;0.60;;;;;;;;;;5656313;23;19939;-85
2023/04/19 11:58:08;;;;;;;0.70;0.68;;;;;;;;;;4910753;29;20012;-81
2023/04/19 12:00:34;;;;;;;1.08;0.90;;;;;;;;;;4909773;29;20150;-81
2023/04/19 12:08:10;;;;;;;1.27;1.15;;;;;;;;;;5072027;23;19957;-81
2023/04/19 12:10:35;;;;;;;1.40;1.30;;;;;;;;;;4900689;29;20012;-88
2023/04/19 12:13:15;;;;;;;2.75;1.60;;;;;;;;;;4884519;29;20032;-81
2023/04/19 12:15:43;;;;;;;1.80;1.70;;;;;;;;;;4891442;29;20124;-81
2023/04/19 12:18:09;;;;;;;1.92;1.77;;;;;;;;;;4888963;29;20041;-81
2023/04/19 12:20:36;;;;;;;1.80;1.70;;;;;;;;;;5405406;23;20042;-81
2023/04/19 12:23:02;;;;;;;2.00;1.90;;;;;;;;;;4924201;29;20025;-82
2023/04/19 12:30:38;;;;;;;1.83;1.20;;;;;;;;;;5078295;23;20060;-85
2023/04/19 12:33:04;;;;;;;2.10;1.90;;;;;;;;;;4922951;29;20076;-82
2023/04/19 12:35:30;;;;;;;2.35;1.73;;;;;;;;;;4933112;29;20039;-84
2023/04/19 12:37:56;;;;;;;1.88;1.77;;;;;;;;;;4911686;29;20052;-82
2023/04/19 12:40:22;;;;;;;1.58;1.48;;;;;;;;;;4916805;29;20405;-83
2023/04/19 12:42:47;;;;;;;1.55;1.20;;;;;;;;;;4890539;29;20042;-86
2023/04/19 12:45:13;;;;;;;1.02;0.90;;;;;;;;;;4914475;29;20031;-80
2023/04/19 12:47:38;;;;;;;0.80;0.80;;;;;;;;;;4924569;29;20028;-82
2023/04/19 12:50:04;;;;;;;1.38;0.93;;;;;;;;;;5058732;23;20071;-84
2023/04/19 12:52:29;;;;;;;0.93;0.93;;;;;;;;;;4886985;29;20032;-89
2023/04/19 12:54:55;;;;;;;0.50;0.50;;;;;;;;;;4870971;29;20058;-89
2023/04/19 12:57:20;;;;;;;0.43;0.43;;;;;;;;;;4869227;29;20265;-87
2023/04/19 12:59:46;;;;;;;0.80;0.70;;;;;;;;;;4872248;29;20036;-85
2023/04/19 13:02:11;;;;;;;0.82;0.50;;;;;;;;;;4898244;29;20479;-84
2023/04/19 13:04:36;;;;;;;0.68;0.65;;;;;;;;;;4874710;29;20088;-85
2023/04/19 13:07:01;;;;;;;1.02;0.75;;;;;;;;;;4904409;29;20029;-82
2023/04/19 13:09:27;;;;;;;1.10;0.90;;;;;;;;;;4903835;29;20032;-81
2023/04/19 13:11:56;;;;;;;1.88;0.80;;;;;;;;;;4902997;29;20296;-81
2023/04/19 13:14:22;;;;;;;0.90;0.90;;;;;;;;;;4905810;29;20020;-83
2023/04/19 13:16:47;;;;;;;2.40;1.10;;;;;;;;;;4923574;29;20024;-84
2023/04/19 13:19:12;;;;;;;1.92;1.40;;;;;;;;;;4904254;29;20045;-82
2023/04/19 13:21:38;;;;;;;1.85;1.73;;;;;;;;;;4907794;29;20021;-80
2023/04/19 13:26:38;;;;;;;1.70;1.60;;;;;;;;;;5453676;23;20063;-83
2023/04/19 13:29:04;;;;;;;2.10;1.88;;;;;;;;;;4895620;29;20036;-83
2023/04/19 13:31:29;;;;;;;1.60;1.50;;;;;;;;;;4915512;29;20025;-82
2023/04/19 13:33:55;;;;;;;2.33;1.65;;;;;;;;;;4918342;29;20500;-84
2023/04/19 13:36:21;;;;;;;1.42;1.33;;;;;;;;;;4887863;29;20028;-86
2023/04/19 13:38:46;;;;;;;1.10;1.00;;;;;;;;;;4884849;29;20525;-85
2023/04/19 13:41:12;;;;;;;1.30;1.20;;;;;;;;;;4882854;29;20110;-85
2023/04/19 13:43:37;;;;;;;0.80;0.77;;;;;;;;;;4905278;29;20032;-82
2023/04/19 13:46:02;;;;;;;1.10;1.00;;;;;;;;;;4910935;29;20035;-80
2023/04/19 13:48:28;;;;;;;2.03;1.50;;;;;;;;;;4916915;29;20064;-81
2023/04/19 13:50:56;;;;;;;1.83;1.60;;;;;;;;;;4930464;29;20028;-81
2023/04/19 13:53:22;;;;;;;3.13;1.97;;;;;;;;;;4903629;29;20351;-82
2023/04/19 13:55:47;;;;;;;2.55;2.10;;;;;;;;;;4912996;29;20356;-81
2023/04/19 13:58:12;;;;;;;1.60;1.50;;;;;;;;;;4901158;29;20025;-80
2023/04/19 14:03:13;;;;;;;2.50;2.30;;;;;;;;;;5253691;23;20060;-83
2023/04/19 14:05:39;;;;;;;1.50;1.40;;;;;;;;;;4922965;29;20020;-80
2023/04/19 14:08:04;;;;;;;2.13;1.02;;;;;;;;;;4914278;29;20028;-80
2023/04/19 14:10:30;;;;;;;1.20;1.10;;;;;;;;;;4934832;29;20024;-83
2023/04/19 14:12:55;;;;;;;1.02;1.02;;;;;;;;;;4925692;29;20083;-81
2023/04/19 14:15:22;;;;;;;1.17;1.10;;;;;;;;;;4941955;29;20008;-82
2023/04/19 14:17:47;;;;;;;2.55;1.58;;;;;;;;;;4924780;29;20018;-81
2023/04/19 14:20:13;;;;;;;2.35;1.80;;;;;;;;;;4937973;29;20009;-81
2023/04/19 14:22:38;;;;;;;1.83;1.40;;;;;;;;;;4922789;29;20032;-81
2023/04/19 14:25:04;;;;;;;1.95;1.83;;;;;;;;;;4916063;29;20398;-81
2023/04/19 14:27:30;;;;;;;2.60;2.40;;;;;;;;;;4919228;29;20019;-81
2023/04/19 14:29:55;;;;;;;2.22;2.03;;;;;;;;;;4918607;29;20024;-81
2023/04/19 14:32:21;;;;;;;2.15;1.95;;;;;;;;;;4935310;29;20056;-81
2023/04/19 14:34:46;;;;;;;3.25;2.95;;;;;;;;;;4923117;29;20024;-81
2023/04/19 14:37:12;;;;;;;4.47;3.10;;;;;;;;;;4940044;29;20032;-81
2023/04/19 14:39:37;;;;;;;4.03;3.72;;;;;;;;;;4938606;29;20004;-81
2023/04/19 14:42:02;;;;;;;6.32;3.42;;;;;;;;;;4936099;29;20055;-82
2023/04/19 14:44:28;;;;;;;2.97;2.78;;;;;;;;;;4933269;29;20024;-82
2023/04/19 14:46:54;;;;;;;4.13;2.92;;;;;;;;;;4910903;29;20028;-81
2023/04/19 14:49:20;;;;;;;3.17;2.88;;;;;;;;;;4923444;29;20024;-80
2023/04/19 14:51:45;;;;;;;3.38;2.20;;;;;;;;;;4922120;29;20055;-80
2023/04/19 14:54:10;;;;;;;3.38;2.97;;;;;;;;;;4918907;29;20016;-79
2023/04/19 14:56:36;;;;;;;3.58;2.72;;;;;;;;;;4890283;29;20514;-79
2023/04/19 14:59:02;;;;;;;3.10;2.90;;;;;;;;;;4890965;29;20033;-79
2023/04/19 15:01:27;;;;;;;2.85;2.65;;;;;;;;;;4875923;29;20423;-80
2023/04/19 15:03:52;;;;;;;1.95;1.85;;;;;;;;;;4892922;29;20518;-81
2023/04/19 15:06:17;;;;;;;2.25;2.05;;;;;;;;;;4919510;29;20032;-81
2023/04/19 15:08:43;;;;;;;1.88;1.70;;;;;;;;;;4905796;29;20066;-80
2023/04/19 15:11:08;;;;;;;1.58;1.48;;;;;;;;;;4884653;29;20509;-81
2023/04/19 15:13:34;;;;;;;1.55;1.45;;;;;;;;;;4913887;29;20035;-81
2023/04/19 15:16:00;;;;;;;2.75;1.55;;;;;;;;;;4883157;29;20080;-80
2023/04/19 15:18:25;;;;;;;2.35;1.25;;;;;;;;;;4888329;29;20051;-81
2023/04/19 15:20:50;;;;;;;2.63;1.10;;;;;;;;;;4890555;29;20024;-81
2023/04/19 15:23:16;;;;;;;1.40;1.30;;;;;;;;;;4896507;29;20320;-80
2023/04/19 15:25:41;;;;;;;1.00;0.90;;;;;;;;;;4899689;29;20027;-81
2023/04/19 15:28:06;;;;;;;1.77;1.15;;;;;;;;;;4909743;29;20025;-82
2023/04/19 15:30:31;;;;;;;5.00;1.30;;;;;;;;;;4901291;29;20036;-79
2023/04/19 15:32:57;;;;;;;2.53;1.00;;;;;;;;;;4888374;29;20041;-80
2023/04/19 15:35:22;;;;;;;1.57;0.73;;;;;;;;;;4902926;29;20329;-80
2023/04/19 15:37:47;;;;;;;2.75;1.05;;;;;;;;;;4897376;29;20438;-80
2023/04/19 15:40:13;;;;;;;2.33;1.42;;;;;;;;;;5063710;23;20055;-81
2023/04/19 16:18:51;;;;;;;0.90;0.90;;;;;;;;;;5243567;23;19974;-80
2023/04/19 16:29:05;;;;;;;0.73;0.70;;;;;;;;;;5485638;23;20052;-79
2023/04/19 16:35:06;;;;;;;1.93;0.80;;;;;;;;;;6042285;23;20030;31
2023/04/19 16:51:02;;;;;;;4.20;3.53;;;;;;;;;;1202924;27;20052;-79
2023/04/19 16:53:35;;;;;;;5.05;4.65;;;;;;;;;;4906484;29;20047;-81
2023/04/19 17:01:11;;;;;;;1.80;1.60;;;;;;;;;;4665793;27;20095;-81
2023/04/19 17:06:59;;;;;;;1.13;0.90;;;;;;;;;;4906375;29;20637;-80
2023/04/19 17:09:43;;;;;;;1.20;1.10;;;;;;;;;;4875446;29;20025;-80
2023/04/19 17:12:13;;;;;;;1.95;1.40;;;;;;;;;;4871876;29;20018;-81
2023/04/19 17:14:48;;;;;;;1.48;1.30;;;;;;;;;;4868968;29;20037;-81
2023/04/19 17:17:14;;;;;;;1.88;1.30;;;;;;;;;;4883491;29;20097;-81
2023/04/19 17:19:39;;;;;;;1.33;1.23;;;;;;;;;;4876428;29;20025;-81
2023/04/19 17:22:07;;;;;;;1.75;1.65;;;;;;;;;;4860642;29;20046;-79
2023/04/19 17:24:33;;;;;;;1.88;1.77;;;;;;;;;;4877783;29;20033;-79
2023/04/19 17:26:59;;;;;;;2.35;1.20;;;;;;;;;;4878075;29;20070;-81
2023/04/19 17:29:24;;;;;;;1.60;1.50;;;;;;;;;;4881748;29;20089;-81
2023/04/19 17:31:50;;;;;;;4.50;3.30;;;;;;;;;;4872421;29;20045;-81
2023/04/19 17:34:15;;;;;;;6.07;5.35;;;;;;;;;;4876764;29;20041;-80
2023/04/19 17:36:41;;;;;;;18.35;13.60;;;;;;;;;;4880695;29;20085;-81
2023/04/19 17:39:07;;;;;;;38.65;28.00;;;;;;;;;;4879588;29;20040;-82
2023/04/19 17:41:33;;;;;;;16.27;13.80;;;;;;;;;;4865921;29;21260;-82
2023/04/19 17:44:01;;;;;;;9.65;8.68;;;;;;;;;;4878529;29;20022;-82
2023/04/19 17:46:27;;;;;;;13.77;12.45;;;;;;;;;;4878972;29;20036;-82
2023/04/19 17:48:55;;;;;;;12.82;11.48;;;;;;;;;;4878239;29;20033;-81
2023/04/19 17:51:21;;;;;;;12.77;10.98;;;;;;;;;;4865370;29;20058;-81
2023/04/19 17:53:48;;;;;;;11.80;10.73;;;;;;;;;;4876811;29;20089;-82
2023/04/19 17:56:13;;;;;;;9.93;9.02;;;;;;;;;;4861853;29;20033;-81
2023/04/19 17:58:41;;;;;;;9.65;8.70;;;;;;;;;;4865197;29;20104;-82
2023/04/19 18:01:09;;;;;;;9.30;8.60;;;;;;;;;;4899996;29;20028;-81
2023/04/19 18:03:34;;;;;;;9.93;9.18;;;;;;;;;;4898880;29;20051;-81
2023/04/19 18:06:00;;;;;;;8.98;8.25;;;;;;;;;;4915463;29;20052;-80
2023/04/19 18:08:25;;;;;;;8.82;8.07;;;;;;;;;;4915279;29;20067;-81
2023/04/19 18:10:50;;;;;;;9.48;8.75;;;;;;;;;;4912536;29;20648;-81
2023/04/19 18:13:16;;;;;;;9.57;8.68;;;;;;;;;;4897173;29;20025;-81
2023/04/19 18:15:41;;;;;;;10.18;9.35;;;;;;;;;;4907204;29;20436;-79
2023/04/19 18:18:07;;;;;;;11.07;9.93;;;;;;;;;;4891492;29;20028;-82
2023/04/19 18:20:33;;;;;;;12.20;11.02;;;;;;;;;;4908667;29;20035;-79
2023/04/19 18:23:00;;;;;;;13.48;12.18;;;;;;;;;;4888214;29;20392;-82
2023/04/19 18:25:26;;;;;;;13.25;11.88;;;;;;;;;;4913946;29;20044;-80
2023/04/19 18:27:51;;;;;;;14.75;13.32;;;;;;;;;;4911600;29;20017;-82
2023/04/19 18:30:16;;;;;;;14.00;12.25;;;;;;;;;;4896167;29;20020;-80
2023/04/19 18:32:42;;;;;;;15.27;13.40;;;;;;;;;;4896391;29;20040;-80
2023/04/19 18:35:08;;;;;;;12.95;11.43;;;;;;;;;;4917410;29;20222;-81
2023/04/19 18:37:34;;;;;;;12.55;11.35;;;;;;;;;;4905060;29;20015;-80
2023/04/19 18:40:00;;;;;;;12.32;11.13;;;;;;;;;;4921131;29;20008;-82